sensor_id;sensor_type;location;lat;lon;timestamp;P1;durP1;ratioP1;P2;durP2;ratioP2
12986;SDS011;58897;51.960;5.582;2022-07-25T00:01:10;4.03;;;3.70;;
12986;SDS011;58897;51.960;5.582;2022-07-25T00:03:37;4.37;;;3.97;;
12986;SDS011;58897;51.960;5.582;2022-07-25T00:06:04;6.03;;;3.40;;
12986;SDS011;58897;51.960;5.582;2022-07-25T00:08:31;5.13;;;3.77;;
12986;SDS011;58897;51.960;5.582;2022-07-25T00:10:57;5.40;;;3.90;;
12986;SDS011;58897;51.960;5.582;2022-07-25T00:13:24;4.20;;;3.80;;
12986;SDS011;58897;51.960;5.582;2022-07-25T00:15:50;5.40;;;4.23;;
12986;SDS011;58897;51.960;5.582;2022-07-25T00:18:17;4.60;;;4.20;;
12986;SDS011;58897;51.960;5.582;2022-07-25T00:20:43;7.43;;;4.67;;
12986;SDS011;58897;51.960;5.582;2022-07-25T00:23:09;6.90;;;5.07;;
12986;SDS011;58897;51.960;5.582;2022-07-25T00:25:36;6.00;;;4.30;;
12986;SDS011;58897;51.960;5.582;2022-07-25T00:28:02;7.33;;;4.77;;
12986;SDS011;58897;51.960;5.582;2022-07-25T00:30:29;7.43;;;5.20;;
12986;SDS011;58897;51.960;5.582;2022-07-25T00:32:55;6.73;;;4.90;;
12986;SDS011;58897;51.960;5.582;2022-07-25T00:35:22;6.40;;;5.07;;
12986;SDS011;58897;51.960;5.582;2022-07-25T00:37:48;5.90;;;5.27;;
12986;SDS011;58897;51.960;5.582;2022-07-25T00:40:15;6.30;;;5.10;;
12986;SDS011;58897;51.960;5.582;2022-07-25T00:42:42;5.93;;;5.30;;
12986;SDS011;58897;51.960;5.582;2022-07-25T00:45:08;6.77;;;5.10;;
12986;SDS011;58897;51.960;5.582;2022-07-25T00:47:36;6.87;;;5.73;;
12986;SDS011;58897;51.960;5.582;2022-07-25T00:50:02;8.90;;;5.40;;
12986;SDS011;58897;51.960;5.582;2022-07-25T00:52:30;7.63;;;5.47;;
12986;SDS011;58897;51.960;5.582;2022-07-25T00:54:56;9.03;;;6.13;;
12986;SDS011;58897;51.960;5.582;2022-07-25T00:57:23;8.43;;;5.83;;
12986;SDS011;58897;51.960;5.582;2022-07-25T00:59:49;7.27;;;6.10;;
12986;SDS011;58897;51.960;5.582;2022-07-25T01:02:16;9.43;;;5.80;;
12986;SDS011;58897;51.960;5.582;2022-07-25T01:04:42;6.77;;;5.70;;
12986;SDS011;58897;51.960;5.582;2022-07-25T01:07:09;9.67;;;5.97;;
12986;SDS011;58897;51.960;5.582;2022-07-25T01:09:36;8.50;;;6.33;;
12986;SDS011;58897;51.960;5.582;2022-07-25T01:12:02;9.67;;;6.30;;
12986;SDS011;58897;51.960;5.582;2022-07-25T01:14:30;7.87;;;6.50;;
12986;SDS011;58897;51.960;5.582;2022-07-25T01:16:57;7.90;;;6.10;;
12986;SDS011;58897;51.960;5.582;2022-07-25T01:19:23;8.60;;;6.47;;
12986;SDS011;58897;51.960;5.582;2022-07-25T01:21:49;6.93;;;5.80;;
12986;SDS011;58897;51.960;5.582;2022-07-25T01:24:16;9.87;;;6.53;;
12986;SDS011;58897;51.960;5.582;2022-07-25T01:26:42;9.63;;;6.57;;
12986;SDS011;58897;51.960;5.582;2022-07-25T01:29:09;8.77;;;6.37;;
12986;SDS011;58897;51.960;5.582;2022-07-25T01:31:35;10.77;;;7.03;;
12986;SDS011;58897;51.960;5.582;2022-07-25T01:34:02;9.50;;;6.47;;
12986;SDS011;58897;51.960;5.582;2022-07-25T01:36:29;9.97;;;7.07;;
12986;SDS011;58897;51.960;5.582;2022-07-25T01:38:56;9.37;;;7.03;;
12986;SDS011;58897;51.960;5.582;2022-07-25T01:41:23;9.30;;;7.20;;
12986;SDS011;58897;51.960;5.582;2022-07-25T01:43:49;9.83;;;7.10;;
12986;SDS011;58897;51.960;5.582;2022-07-25T01:46:16;9.73;;;7.40;;
12986;SDS011;58897;51.960;5.582;2022-07-25T01:48:43;11.17;;;7.27;;
12986;SDS011;58897;51.960;5.582;2022-07-25T01:51:09;8.40;;;7.07;;
12986;SDS011;58897;51.960;5.582;2022-07-25T01:53:36;8.47;;;6.97;;
12986;SDS011;58897;51.960;5.582;2022-07-25T01:56:04;8.47;;;7.23;;
12986;SDS011;58897;51.960;5.582;2022-07-25T01:58:33;9.47;;;6.70;;
12986;SDS011;58897;51.960;5.582;2022-07-25T02:00:59;11.37;;;8.20;;
12986;SDS011;58897;51.960;5.582;2022-07-25T02:03:26;9.73;;;6.60;;
12986;SDS011;58897;51.960;5.582;2022-07-25T02:05:59;7.90;;;6.67;;
12986;SDS011;58897;51.960;5.582;2022-07-25T02:08:28;7.23;;;6.53;;
12986;SDS011;58897;51.960;5.582;2022-07-25T02:10:55;9.07;;;7.03;;
12986;SDS011;58897;51.960;5.582;2022-07-25T02:13:23;9.43;;;6.30;;
12986;SDS011;58897;51.960;5.582;2022-07-25T02:15:49;9.13;;;6.43;;
12986;SDS011;58897;51.960;5.582;2022-07-25T02:18:16;7.80;;;6.17;;
12986;SDS011;58897;51.960;5.582;2022-07-25T02:20:43;8.53;;;7.13;;
12986;SDS011;58897;51.960;5.582;2022-07-25T02:23:09;8.47;;;6.77;;
12986;SDS011;58897;51.960;5.582;2022-07-25T02:25:36;10.53;;;7.87;;
12986;SDS011;58897;51.960;5.582;2022-07-25T02:28:03;8.00;;;7.17;;
12986;SDS011;58897;51.960;5.582;2022-07-25T02:30:29;9.43;;;7.13;;
12986;SDS011;58897;51.960;5.582;2022-07-25T02:32:56;10.90;;;8.20;;
12986;SDS011;58897;51.960;5.582;2022-07-25T02:35:22;11.33;;;7.77;;
12986;SDS011;58897;51.960;5.582;2022-07-25T02:37:49;8.93;;;7.20;;
12986;SDS011;58897;51.960;5.582;2022-07-25T02:40:15;8.23;;;7.00;;
12986;SDS011;58897;51.960;5.582;2022-07-25T02:42:42;10.93;;;7.90;;
12986;SDS011;58897;51.960;5.582;2022-07-25T02:45:09;8.13;;;7.23;;
12986;SDS011;58897;51.960;5.582;2022-07-25T02:47:35;11.20;;;8.90;;
12986;SDS011;58897;51.960;5.582;2022-07-25T02:50:02;10.33;;;7.90;;
12986;SDS011;58897;51.960;5.582;2022-07-25T02:52:30;9.00;;;7.33;;
12986;SDS011;58897;51.960;5.582;2022-07-25T02:54:56;11.67;;;7.47;;
12986;SDS011;58897;51.960;5.582;2022-07-25T02:57:22;9.67;;;7.67;;
12986;SDS011;58897;51.960;5.582;2022-07-25T02:59:49;11.87;;;7.40;;
12986;SDS011;58897;51.960;5.582;2022-07-25T03:02:15;10.83;;;8.47;;
12986;SDS011;58897;51.960;5.582;2022-07-25T03:04:42;10.17;;;7.93;;
12986;SDS011;58897;51.960;5.582;2022-07-25T03:07:08;15.87;;;8.37;;
12986;SDS011;58897;51.960;5.582;2022-07-25T03:09:35;9.43;;;7.70;;
12986;SDS011;58897;51.960;5.582;2022-07-25T03:12:01;8.47;;;7.00;;
12986;SDS011;58897;51.960;5.582;2022-07-25T03:14:28;9.50;;;7.10;;
12986;SDS011;58897;51.960;5.582;2022-07-25T03:16:54;9.87;;;7.30;;
12986;SDS011;58897;51.960;5.582;2022-07-25T03:19:21;11.17;;;8.23;;
12986;SDS011;58897;51.960;5.582;2022-07-25T03:21:48;10.03;;;6.97;;
12986;SDS011;58897;51.960;5.582;2022-07-25T03:24:15;9.47;;;7.27;;
12986;SDS011;58897;51.960;5.582;2022-07-25T03:26:42;12.63;;;8.40;;
12986;SDS011;58897;51.960;5.582;2022-07-25T03:29:08;10.73;;;8.07;;
12986;SDS011;58897;51.960;5.582;2022-07-25T03:31:34;10.13;;;7.60;;
12986;SDS011;58897;51.960;5.582;2022-07-25T03:34:01;8.70;;;6.93;;
12986;SDS011;58897;51.960;5.582;2022-07-25T03:36:28;9.63;;;7.27;;
12986;SDS011;58897;51.960;5.582;2022-07-25T03:38:54;9.20;;;7.70;;
12986;SDS011;58897;51.960;5.582;2022-07-25T03:41:21;9.73;;;7.33;;
12986;SDS011;58897;51.960;5.582;2022-07-25T03:43:48;9.90;;;7.97;;
12986;SDS011;58897;51.960;5.582;2022-07-25T03:46:14;11.27;;;8.27;;
12986;SDS011;58897;51.960;5.582;2022-07-25T03:48:41;8.53;;;7.60;;
12986;SDS011;58897;51.960;5.582;2022-07-25T03:51:07;12.17;;;9.03;;
12986;SDS011;58897;51.960;5.582;2022-07-25T03:53:34;10.13;;;8.07;;
12986;SDS011;58897;51.960;5.582;2022-07-25T03:56:20;11.50;;;8.40;;
12986;SDS011;58897;51.960;5.582;2022-07-25T03:58:47;11.03;;;8.63;;
12986;SDS011;58897;51.960;5.582;2022-07-25T04:01:14;10.13;;;8.03;;
12986;SDS011;58897;51.960;5.582;2022-07-25T04:03:40;11.07;;;8.37;;
12986;SDS011;58897;51.960;5.582;2022-07-25T04:06:09;8.43;;;7.53;;
12986;SDS011;58897;51.960;5.582;2022-07-25T04:08:36;10.73;;;7.80;;
12986;SDS011;58897;51.960;5.582;2022-07-25T04:11:02;9.87;;;7.20;;
12986;SDS011;58897;51.960;5.582;2022-07-25T04:13:28;9.67;;;7.60;;
12986;SDS011;58897;51.960;5.582;2022-07-25T04:15:55;8.43;;;7.47;;
12986;SDS011;58897;51.960;5.582;2022-07-25T04:18:23;10.73;;;7.73;;
12986;SDS011;58897;51.960;5.582;2022-07-25T04:20:53;11.53;;;7.77;;
12986;SDS011;58897;51.960;5.582;2022-07-25T04:23:20;9.10;;;7.73;;
12986;SDS011;58897;51.960;5.582;2022-07-25T04:25:46;9.13;;;7.47;;
12986;SDS011;58897;51.960;5.582;2022-07-25T04:28:13;9.53;;;8.00;;
12986;SDS011;58897;51.960;5.582;2022-07-25T04:30:39;8.83;;;7.40;;
12986;SDS011;58897;51.960;5.582;2022-07-25T04:33:06;8.90;;;7.70;;
12986;SDS011;58897;51.960;5.582;2022-07-25T04:35:32;12.17;;;7.77;;
12986;SDS011;58897;51.960;5.582;2022-07-25T04:37:58;11.90;;;8.27;;
12986;SDS011;58897;51.960;5.582;2022-07-25T04:40:25;10.30;;;7.80;;
12986;SDS011;58897;51.960;5.582;2022-07-25T04:42:51;13.47;;;8.30;;
12986;SDS011;58897;51.960;5.582;2022-07-25T04:45:18;9.37;;;7.67;;
12986;SDS011;58897;51.960;5.582;2022-07-25T04:47:44;11.63;;;8.50;;
12986;SDS011;58897;51.960;5.582;2022-07-25T04:50:12;13.13;;;8.00;;
12986;SDS011;58897;51.960;5.582;2022-07-25T04:52:38;11.50;;;7.57;;
12986;SDS011;58897;51.960;5.582;2022-07-25T04:55:05;10.70;;;8.27;;
12986;SDS011;58897;51.960;5.582;2022-07-25T04:57:32;11.67;;;8.33;;
12986;SDS011;58897;51.960;5.582;2022-07-25T04:59:58;8.93;;;7.83;;
12986;SDS011;58897;51.960;5.582;2022-07-25T05:02:25;11.90;;;7.37;;
12986;SDS011;58897;51.960;5.582;2022-07-25T05:04:51;10.77;;;7.70;;
12986;SDS011;58897;51.960;5.582;2022-07-25T05:07:18;11.73;;;8.10;;
12986;SDS011;58897;51.960;5.582;2022-07-25T05:09:44;11.50;;;9.10;;
12986;SDS011;58897;51.960;5.582;2022-07-25T05:12:11;11.97;;;8.43;;
12986;SDS011;58897;51.960;5.582;2022-07-25T05:14:37;9.70;;;7.50;;
12986;SDS011;58897;51.960;5.582;2022-07-25T05:17:04;10.20;;;8.30;;
12986;SDS011;58897;51.960;5.582;2022-07-25T05:19:30;12.63;;;8.83;;
12986;SDS011;58897;51.960;5.582;2022-07-25T05:21:57;9.10;;;8.03;;
12986;SDS011;58897;51.960;5.582;2022-07-25T05:24:23;11.67;;;9.17;;
12986;SDS011;58897;51.960;5.582;2022-07-25T05:26:50;11.03;;;8.70;;
12986;SDS011;58897;51.960;5.582;2022-07-25T05:29:16;9.90;;;8.20;;
12986;SDS011;58897;51.960;5.582;2022-07-25T05:31:43;10.40;;;8.37;;
12986;SDS011;58897;51.960;5.582;2022-07-25T05:34:09;10.60;;;8.60;;
12986;SDS011;58897;51.960;5.582;2022-07-25T05:36:36;10.70;;;9.00;;
12986;SDS011;58897;51.960;5.582;2022-07-25T05:39:02;9.30;;;8.30;;
12986;SDS011;58897;51.960;5.582;2022-07-25T05:41:29;10.40;;;7.60;;
12986;SDS011;58897;51.960;5.582;2022-07-25T05:43:55;11.47;;;8.37;;
12986;SDS011;58897;51.960;5.582;2022-07-25T05:46:22;10.20;;;7.77;;
12986;SDS011;58897;51.960;5.582;2022-07-25T05:48:50;9.67;;;8.10;;
12986;SDS011;58897;51.960;5.582;2022-07-25T05:51:17;12.17;;;8.03;;
12986;SDS011;58897;51.960;5.582;2022-07-25T05:53:43;8.40;;;6.90;;
12986;SDS011;58897;51.960;5.582;2022-07-25T05:56:10;12.30;;;7.77;;
12986;SDS011;58897;51.960;5.582;2022-07-25T05:58:36;10.50;;;6.73;;
12986;SDS011;58897;51.960;5.582;2022-07-25T06:01:06;8.73;;;6.57;;
12986;SDS011;58897;51.960;5.582;2022-07-25T06:03:33;9.10;;;7.13;;
12986;SDS011;58897;51.960;5.582;2022-07-25T06:05:59;10.80;;;6.53;;
12986;SDS011;58897;51.960;5.582;2022-07-25T06:08:26;9.57;;;7.10;;
12986;SDS011;58897;51.960;5.582;2022-07-25T06:10:54;8.47;;;7.33;;
12986;SDS011;58897;51.960;5.582;2022-07-25T06:13:20;9.33;;;7.33;;
12986;SDS011;58897;51.960;5.582;2022-07-25T06:15:48;9.60;;;7.57;;
12986;SDS011;58897;51.960;5.582;2022-07-25T06:18:15;8.17;;;7.13;;
12986;SDS011;58897;51.960;5.582;2022-07-25T06:20:41;10.27;;;7.40;;
12986;SDS011;58897;51.960;5.582;2022-07-25T06:23:08;8.70;;;6.67;;
12986;SDS011;58897;51.960;5.582;2022-07-25T06:25:35;7.93;;;5.97;;
12986;SDS011;58897;51.960;5.582;2022-07-25T06:28:01;6.77;;;5.87;;
12986;SDS011;58897;51.960;5.582;2022-07-25T06:30:28;8.73;;;5.97;;
12986;SDS011;58897;51.960;5.582;2022-07-25T06:32:55;7.97;;;6.60;;
12986;SDS011;58897;51.960;5.582;2022-07-25T06:35:21;6.57;;;5.87;;
12986;SDS011;58897;51.960;5.582;2022-07-25T06:37:48;8.97;;;6.17;;
12986;SDS011;58897;51.960;5.582;2022-07-25T06:40:14;8.33;;;5.60;;
12986;SDS011;58897;51.960;5.582;2022-07-25T06:42:42;7.97;;;5.50;;
12986;SDS011;58897;51.960;5.582;2022-07-25T06:45:11;8.70;;;5.80;;
12986;SDS011;58897;51.960;5.582;2022-07-25T06:47:38;15.50;;;7.83;;
12986;SDS011;58897;51.960;5.582;2022-07-25T06:50:07;8.53;;;6.10;;
12986;SDS011;58897;51.960;5.582;2022-07-25T06:52:36;7.30;;;5.67;;
12986;SDS011;58897;51.960;5.582;2022-07-25T06:55:03;6.03;;;5.37;;
12986;SDS011;58897;51.960;5.582;2022-07-25T06:57:31;7.73;;;6.03;;
12986;SDS011;58897;51.960;5.582;2022-07-25T06:59:57;7.57;;;5.73;;
12986;SDS011;58897;51.960;5.582;2022-07-25T07:02:24;6.57;;;5.50;;
12986;SDS011;58897;51.960;5.582;2022-07-25T07:04:50;6.10;;;4.80;;
12986;SDS011;58897;51.960;5.582;2022-07-25T07:07:17;7.20;;;4.87;;
12986;SDS011;58897;51.960;5.582;2022-07-25T07:09:43;6.63;;;5.43;;
12986;SDS011;58897;51.960;5.582;2022-07-25T07:12:10;5.53;;;4.57;;
12986;SDS011;58897;51.960;5.582;2022-07-25T07:14:36;4.80;;;4.33;;
12986;SDS011;58897;51.960;5.582;2022-07-25T07:17:03;4.90;;;4.13;;
12986;SDS011;58897;51.960;5.582;2022-07-25T07:19:30;4.97;;;4.20;;
12986;SDS011;58897;51.960;5.582;2022-07-25T07:21:57;4.83;;;3.97;;
12986;SDS011;58897;51.960;5.582;2022-07-25T07:24:23;4.40;;;3.70;;
12986;SDS011;58897;51.960;5.582;2022-07-25T07:26:50;4.07;;;3.47;;
12986;SDS011;58897;51.960;5.582;2022-07-25T07:29:18;4.73;;;3.60;;
12986;SDS011;58897;51.960;5.582;2022-07-25T07:31:49;5.17;;;2.57;;
12986;SDS011;58897;51.960;5.582;2022-07-25T07:34:16;3.90;;;2.87;;
12986;SDS011;58897;51.960;5.582;2022-07-25T07:36:42;3.73;;;3.00;;
12986;SDS011;58897;51.960;5.582;2022-07-25T07:39:09;5.73;;;2.70;;
12986;SDS011;58897;51.960;5.582;2022-07-25T07:41:36;4.07;;;2.30;;
12986;SDS011;58897;51.960;5.582;2022-07-25T07:44:03;2.93;;;2.30;;
12986;SDS011;58897;51.960;5.582;2022-07-25T07:46:30;3.33;;;2.33;;
12986;SDS011;58897;51.960;5.582;2022-07-25T07:48:57;2.80;;;2.00;;
12986;SDS011;58897;51.960;5.582;2022-07-25T07:51:23;2.70;;;2.30;;
12986;SDS011;58897;51.960;5.582;2022-07-25T07:53:50;1.90;;;1.53;;
12986;SDS011;58897;51.960;5.582;2022-07-25T07:56:35;3.33;;;1.90;;
12986;SDS011;58897;51.960;5.582;2022-07-25T07:59:01;4.10;;;1.90;;
12986;SDS011;58897;51.960;5.582;2022-07-25T08:01:28;2.43;;;1.80;;
12986;SDS011;58897;51.960;5.582;2022-07-25T08:03:54;1.60;;;1.50;;
12986;SDS011;58897;51.960;5.582;2022-07-25T08:06:21;2.77;;;1.60;;
12986;SDS011;58897;51.960;5.582;2022-07-25T08:08:47;3.17;;;1.70;;
12986;SDS011;58897;51.960;5.582;2022-07-25T08:11:14;1.50;;;1.40;;
12986;SDS011;58897;51.960;5.582;2022-07-25T08:13:41;3.23;;;1.40;;
12986;SDS011;58897;51.960;5.582;2022-07-25T08:16:08;2.33;;;1.50;;
12986;SDS011;58897;51.960;5.582;2022-07-25T08:18:37;2.27;;;1.40;;
12986;SDS011;58897;51.960;5.582;2022-07-25T08:21:03;2.73;;;1.63;;
12986;SDS011;58897;51.960;5.582;2022-07-25T08:23:31;4.50;;;1.90;;
12986;SDS011;58897;51.960;5.582;2022-07-25T08:26:00;1.40;;;1.10;;
12986;SDS011;58897;51.960;5.582;2022-07-25T08:28:27;3.23;;;1.60;;
12986;SDS011;58897;51.960;5.582;2022-07-25T08:30:53;1.30;;;1.20;;
12986;SDS011;58897;51.960;5.582;2022-07-25T08:33:20;2.97;;;1.50;;
12986;SDS011;58897;51.960;5.582;2022-07-25T08:35:48;2.83;;;1.33;;
12986;SDS011;58897;51.960;5.582;2022-07-25T08:38:17;2.60;;;1.40;;
12986;SDS011;58897;51.960;5.582;2022-07-25T08:40:44;1.43;;;0.90;;
12986;SDS011;58897;51.960;5.582;2022-07-25T08:43:11;2.27;;;1.03;;
12986;SDS011;58897;51.960;5.582;2022-07-25T08:45:41;2.07;;;1.17;;
12986;SDS011;58897;51.960;5.582;2022-07-25T08:48:11;4.03;;;1.10;;
12986;SDS011;58897;51.960;5.582;2022-07-25T08:50:38;1.63;;;0.90;;
12986;SDS011;58897;51.960;5.582;2022-07-25T08:53:05;1.83;;;1.10;;
12986;SDS011;58897;51.960;5.582;2022-07-25T08:55:51;3.10;;;1.13;;
12986;SDS011;58897;51.960;5.582;2022-07-25T08:58:18;2.30;;;1.33;;
12986;SDS011;58897;51.960;5.582;2022-07-25T09:00:44;2.50;;;1.00;;
12986;SDS011;58897;51.960;5.582;2022-07-25T09:03:11;1.40;;;1.00;;
12986;SDS011;58897;51.960;5.582;2022-07-25T09:05:38;2.93;;;0.90;;
12986;SDS011;58897;51.960;5.582;2022-07-25T09:10:43;2.03;;;0.90;;
12986;SDS011;58897;51.960;5.582;2022-07-25T09:13:12;2.87;;;1.20;;
12986;SDS011;58897;51.960;5.582;2022-07-25T09:18:15;2.83;;;0.90;;
12986;SDS011;58897;51.960;5.582;2022-07-25T09:20:44;3.67;;;1.20;;
12986;SDS011;58897;51.960;5.582;2022-07-25T09:23:35;5.17;;;1.10;;
12986;SDS011;58897;51.960;5.582;2022-07-25T09:26:11;1.07;;;0.90;;
12986;SDS011;58897;51.960;5.582;2022-07-25T09:28:48;1.73;;;0.93;;
12986;SDS011;58897;51.960;5.582;2022-07-25T09:31:18;2.20;;;0.97;;
12986;SDS011;58897;51.960;5.582;2022-07-25T09:33:49;1.50;;;1.00;;
12986;SDS011;58897;51.960;5.582;2022-07-25T09:36:17;3.47;;;1.00;;
12986;SDS011;58897;51.960;5.582;2022-07-25T09:38:53;2.43;;;1.07;;
12986;SDS011;58897;51.960;5.582;2022-07-25T09:41:21;3.43;;;1.00;;
12986;SDS011;58897;51.960;5.582;2022-07-25T09:43:48;5.67;;;0.90;;
12986;SDS011;58897;51.960;5.582;2022-07-25T09:46:14;2.40;;;1.10;;
12986;SDS011;58897;51.960;5.582;2022-07-25T09:48:43;4.67;;;1.03;;
12986;SDS011;58897;51.960;5.582;2022-07-25T09:51:10;1.43;;;1.23;;
12986;SDS011;58897;51.960;5.582;2022-07-25T09:53:36;1.50;;;1.13;;
12986;SDS011;58897;51.960;5.582;2022-07-25T09:56:03;2.03;;;1.10;;
12986;SDS011;58897;51.960;5.582;2022-07-25T09:58:29;1.50;;;1.00;;
12986;SDS011;58897;51.960;5.582;2022-07-25T10:00:59;4.63;;;1.10;;
12986;SDS011;58897;51.960;5.582;2022-07-25T10:03:49;2.00;;;1.20;;
12986;SDS011;58897;51.960;5.582;2022-07-25T10:08:45;2.27;;;1.10;;
12986;SDS011;58897;51.960;5.582;2022-07-25T10:13:47;1.70;;;1.13;;
12986;SDS011;58897;51.960;5.582;2022-07-25T10:16:17;4.60;;;1.40;;
12986;SDS011;58897;51.960;5.582;2022-07-25T10:18:53;3.53;;;1.37;;
12986;SDS011;58897;51.960;5.582;2022-07-25T10:21:21;3.20;;;1.20;;
12986;SDS011;58897;51.960;5.582;2022-07-25T10:23:56;3.03;;;1.13;;
12986;SDS011;58897;51.960;5.582;2022-07-25T10:26:35;3.50;;;1.00;;
12986;SDS011;58897;51.960;5.582;2022-07-25T10:29:06;3.23;;;1.07;;
12986;SDS011;58897;51.960;5.582;2022-07-25T10:31:39;4.77;;;1.30;;
12986;SDS011;58897;51.960;5.582;2022-07-25T10:34:14;3.60;;;1.20;;
12986;SDS011;58897;51.960;5.582;2022-07-25T10:36:45;1.90;;;1.30;;
12986;SDS011;58897;51.960;5.582;2022-07-25T10:41:50;1.73;;;1.63;;
12986;SDS011;58897;51.960;5.582;2022-07-25T10:44:26;2.23;;;1.10;;
12986;SDS011;58897;51.960;5.582;2022-07-25T10:49:38;2.97;;;1.30;;
12986;SDS011;58897;51.960;5.582;2022-07-25T10:52:30;2.27;;;1.20;;
12986;SDS011;58897;51.960;5.582;2022-07-25T10:54:57;4.30;;;1.37;;
12986;SDS011;58897;51.960;5.582;2022-07-25T10:57:26;4.50;;;1.20;;
12986;SDS011;58897;51.960;5.582;2022-07-25T11:00:04;2.20;;;1.27;;
12986;SDS011;58897;51.960;5.582;2022-07-25T11:02:32;2.00;;;1.20;;
12986;SDS011;58897;51.960;5.582;2022-07-25T11:04:59;3.73;;;1.50;;
12986;SDS011;58897;51.960;5.582;2022-07-25T11:07:28;3.00;;;1.10;;
12986;SDS011;58897;51.960;5.582;2022-07-25T11:10:01;2.37;;;1.40;;
12986;SDS011;58897;51.960;5.582;2022-07-25T11:12:30;2.90;;;1.40;;
12986;SDS011;58897;51.960;5.582;2022-07-25T11:15:00;2.97;;;1.43;;
12986;SDS011;58897;51.960;5.582;2022-07-25T11:17:29;4.30;;;1.30;;
12986;SDS011;58897;51.960;5.582;2022-07-25T11:20:16;3.77;;;1.23;;
12986;SDS011;58897;51.960;5.582;2022-07-25T11:22:51;4.00;;;1.20;;
12986;SDS011;58897;51.960;5.582;2022-07-25T11:25:19;4.17;;;1.13;;
12986;SDS011;58897;51.960;5.582;2022-07-25T11:27:49;3.03;;;1.73;;
12986;SDS011;58897;51.960;5.582;2022-07-25T11:30:22;2.10;;;1.27;;
12986;SDS011;58897;51.960;5.582;2022-07-25T11:32:50;3.73;;;1.20;;
12986;SDS011;58897;51.960;5.582;2022-07-25T11:35:20;2.23;;;1.13;;
12986;SDS011;58897;51.960;5.582;2022-07-25T11:37:49;3.00;;;1.40;;
12986;SDS011;58897;51.960;5.582;2022-07-25T11:40:18;3.23;;;1.40;;
12986;SDS011;58897;51.960;5.582;2022-07-25T11:42:49;3.83;;;1.57;;
12986;SDS011;58897;51.960;5.582;2022-07-25T11:45:25;2.73;;;1.30;;
12986;SDS011;58897;51.960;5.582;2022-07-25T11:48:04;4.73;;;1.23;;
12986;SDS011;58897;51.960;5.582;2022-07-25T11:50:36;1.97;;;1.17;;
12986;SDS011;58897;51.960;5.582;2022-07-25T11:53:08;3.30;;;1.63;;
12986;SDS011;58897;51.960;5.582;2022-07-25T11:55:37;2.00;;;1.20;;
12986;SDS011;58897;51.960;5.582;2022-07-25T11:58:06;4.00;;;1.20;;
12986;SDS011;58897;51.960;5.582;2022-07-25T12:00:35;3.87;;;1.53;;
12986;SDS011;58897;51.960;5.582;2022-07-25T12:03:06;2.80;;;1.43;;
12986;SDS011;58897;51.960;5.582;2022-07-25T12:05:34;6.77;;;1.60;;
12986;SDS011;58897;51.960;5.582;2022-07-25T12:08:10;4.90;;;1.60;;
12986;SDS011;58897;51.960;5.582;2022-07-25T12:10:39;4.37;;;1.77;;
12986;SDS011;58897;51.960;5.582;2022-07-25T12:13:06;3.43;;;1.70;;
12986;SDS011;58897;51.960;5.582;2022-07-25T12:15:36;1.73;;;1.50;;
12986;SDS011;58897;51.960;5.582;2022-07-25T12:18:05;3.07;;;1.73;;
12986;SDS011;58897;51.960;5.582;2022-07-25T12:20:38;2.50;;;1.63;;
12986;SDS011;58897;51.960;5.582;2022-07-25T12:23:07;3.67;;;1.63;;
12986;SDS011;58897;51.960;5.582;2022-07-25T12:25:38;5.03;;;2.10;;
12986;SDS011;58897;51.960;5.582;2022-07-25T12:28:06;6.80;;;1.90;;
12986;SDS011;58897;51.960;5.582;2022-07-25T12:30:33;4.57;;;1.90;;
12986;SDS011;58897;51.960;5.582;2022-07-25T12:33:00;6.27;;;2.00;;
12986;SDS011;58897;51.960;5.582;2022-07-25T12:35:26;7.17;;;2.10;;
12986;SDS011;58897;51.960;5.582;2022-07-25T12:37:53;9.47;;;2.13;;
12986;SDS011;58897;51.960;5.582;2022-07-25T12:40:20;3.70;;;1.90;;
12986;SDS011;58897;51.960;5.582;2022-07-25T12:42:47;3.70;;;1.70;;
12986;SDS011;58897;51.960;5.582;2022-07-25T12:45:14;2.87;;;1.80;;
12986;SDS011;58897;51.960;5.582;2022-07-25T12:47:43;3.97;;;1.60;;
12986;SDS011;58897;51.960;5.582;2022-07-25T12:50:10;5.87;;;1.73;;
12986;SDS011;58897;51.960;5.582;2022-07-25T12:52:38;3.77;;;1.83;;
12986;SDS011;58897;51.960;5.582;2022-07-25T12:55:09;4.50;;;1.43;;
12986;SDS011;58897;51.960;5.582;2022-07-25T12:57:39;4.97;;;2.03;;
12986;SDS011;58897;51.960;5.582;2022-07-25T13:00:07;4.40;;;2.37;;
12986;SDS011;58897;51.960;5.582;2022-07-25T13:02:36;4.27;;;1.90;;
12986;SDS011;58897;51.960;5.582;2022-07-25T13:05:03;5.83;;;1.90;;
12986;SDS011;58897;51.960;5.582;2022-07-25T13:07:31;3.67;;;1.77;;
12986;SDS011;58897;51.960;5.582;2022-07-25T13:09:58;3.73;;;1.93;;
12986;SDS011;58897;51.960;5.582;2022-07-25T13:12:25;3.67;;;2.00;;
12986;SDS011;58897;51.960;5.582;2022-07-25T13:14:52;4.57;;;1.90;;
12986;SDS011;58897;51.960;5.582;2022-07-25T13:17:18;6.93;;;2.10;;
12986;SDS011;58897;51.960;5.582;2022-07-25T13:19:52;3.73;;;1.83;;
12986;SDS011;58897;51.960;5.582;2022-07-25T13:22:18;4.07;;;1.60;;
12986;SDS011;58897;51.960;5.582;2022-07-25T13:24:45;3.23;;;1.80;;
12986;SDS011;58897;51.960;5.582;2022-07-25T13:27:11;5.17;;;2.17;;
12986;SDS011;58897;51.960;5.582;2022-07-25T13:29:38;3.10;;;2.00;;
12986;SDS011;58897;51.960;5.582;2022-07-25T13:32:05;5.40;;;2.00;;
12986;SDS011;58897;51.960;5.582;2022-07-25T13:34:32;3.27;;;1.67;;
12986;SDS011;58897;51.960;5.582;2022-07-25T13:36:58;3.83;;;1.93;;
12986;SDS011;58897;51.960;5.582;2022-07-25T13:39:25;6.03;;;1.87;;
12986;SDS011;58897;51.960;5.582;2022-07-25T13:41:52;3.10;;;1.70;;
12986;SDS011;58897;51.960;5.582;2022-07-25T13:44:18;3.53;;;1.60;;
12986;SDS011;58897;51.960;5.582;2022-07-25T13:46:45;4.50;;;1.70;;
12986;SDS011;58897;51.960;5.582;2022-07-25T13:49:15;3.47;;;1.40;;
12986;SDS011;58897;51.960;5.582;2022-07-25T13:51:42;6.53;;;1.60;;
12986;SDS011;58897;51.960;5.582;2022-07-25T13:54:11;3.20;;;1.60;;
12986;SDS011;58897;51.960;5.582;2022-07-25T13:56:37;4.77;;;1.50;;
12986;SDS011;58897;51.960;5.582;2022-07-25T13:59:05;3.63;;;1.50;;
12986;SDS011;58897;51.960;5.582;2022-07-25T14:01:32;4.17;;;2.10;;
12986;SDS011;58897;51.960;5.582;2022-07-25T14:03:59;3.00;;;1.57;;
12986;SDS011;58897;51.960;5.582;2022-07-25T14:06:25;19.93;;;3.37;;
12986;SDS011;58897;51.960;5.582;2022-07-25T14:08:52;7.40;;;2.00;;
12986;SDS011;58897;51.960;5.582;2022-07-25T14:11:19;3.73;;;1.50;;
12986;SDS011;58897;51.960;5.582;2022-07-25T14:13:45;2.13;;;1.40;;
12986;SDS011;58897;51.960;5.582;2022-07-25T14:16:12;3.17;;;1.80;;
12986;SDS011;58897;51.960;5.582;2022-07-25T14:18:41;5.30;;;2.23;;
12986;SDS011;58897;51.960;5.582;2022-07-25T14:21:08;3.07;;;1.80;;
12986;SDS011;58897;51.960;5.582;2022-07-25T14:23:34;6.50;;;1.80;;
12986;SDS011;58897;51.960;5.582;2022-07-25T14:26:00;4.07;;;1.80;;
12986;SDS011;58897;51.960;5.582;2022-07-25T14:28:28;7.03;;;1.80;;
12986;SDS011;58897;51.960;5.582;2022-07-25T14:30:54;3.47;;;1.57;;
12986;SDS011;58897;51.960;5.582;2022-07-25T14:33:21;5.60;;;1.50;;
12986;SDS011;58897;51.960;5.582;2022-07-25T14:35:48;6.33;;;1.80;;
12986;SDS011;58897;51.960;5.582;2022-07-25T14:38:14;5.87;;;1.40;;
12986;SDS011;58897;51.960;5.582;2022-07-25T14:40:41;6.97;;;1.97;;
12986;SDS011;58897;51.960;5.582;2022-07-25T14:43:07;3.80;;;1.37;;
12986;SDS011;58897;51.960;5.582;2022-07-25T14:45:34;7.53;;;1.60;;
12986;SDS011;58897;51.960;5.582;2022-07-25T14:48:04;7.87;;;1.43;;
12986;SDS011;58897;51.960;5.582;2022-07-25T14:50:31;6.30;;;1.27;;
12986;SDS011;58897;51.960;5.582;2022-07-25T14:52:57;4.10;;;0.90;;
12986;SDS011;58897;51.960;5.582;2022-07-25T14:55:24;2.97;;;1.03;;
12986;SDS011;58897;51.960;5.582;2022-07-25T14:57:51;5.00;;;1.37;;
12986;SDS011;58897;51.960;5.582;2022-07-25T15:00:17;4.47;;;1.20;;
12986;SDS011;58897;51.960;5.582;2022-07-25T15:02:44;4.83;;;1.00;;
12986;SDS011;58897;51.960;5.582;2022-07-25T15:05:11;3.10;;;1.13;;